sensor_id;sensor_type;location;lat;lon;timestamp;temperature;humidity
28069;DHT22;15382;47.578;8.086;2023-12-29T00:01:13;4.70;99.90
28069;DHT22;15382;47.578;8.086;2023-12-29T00:11:17;4.80;99.90
28069;DHT22;15382;47.578;8.086;2023-12-29T00:21:18;4.60;99.90
28069;DHT22;15382;47.578;8.086;2023-12-29T00:31:19;4.70;99.90
28069;DHT22;15382;47.578;8.086;2023-12-29T00:41:19;4.50;99.90
28069;DHT22;15382;47.578;8.086;2023-12-29T00:51:20;4.50;99.90
28069;DHT22;15382;47.578;8.086;2023-12-29T01:01:21;4.60;99.90
28069;DHT22;15382;47.578;8.086;2023-12-29T01:11:21;4.60;99.90
28069;DHT22;15382;47.578;8.086;2023-12-29T01:21:22;4.60;99.90
28069;DHT22;15382;47.578;8.086;2023-12-29T01:31:24;4.40;99.90
28069;DHT22;15382;47.578;8.086;2023-12-29T01:41:25;4.40;99.90
28069;DHT22;15382;47.578;8.086;2023-12-29T01:51:27;4.30;99.90
28069;DHT22;15382;47.578;8.086;2023-12-29T02:01:27;4.40;99.90
28069;DHT22;15382;47.578;8.086;2023-12-29T02:11:28;4.50;99.90
28069;DHT22;15382;47.578;8.086;2023-12-29T02:21:29;4.50;99.90
28069;DHT22;15382;47.578;8.086;2023-12-29T02:31:30;4.60;99.90
28069;DHT22;15382;47.578;8.086;2023-12-29T02:41:32;4.40;99.90
28069;DHT22;15382;47.578;8.086;2023-12-29T02:51:32;4.40;99.90
28069;DHT22;15382;47.578;8.086;2023-12-29T03:01:33;4.50;99.90
28069;DHT22;15382;47.578;8.086;2023-12-29T03:11:34;4.60;99.90
28069;DHT22;15382;47.578;8.086;2023-12-29T03:21:35;4.60;99.90
28069;DHT22;15382;47.578;8.086;2023-12-29T03:31:35;4.60;99.90
28069;DHT22;15382;47.578;8.086;2023-12-29T03:41:36;4.60;99.90
28069;DHT22;15382;47.578;8.086;2023-12-29T03:51:37;4.60;99.90
28069;DHT22;15382;47.578;8.086;2023-12-29T04:01:37;4.70;99.90
28069;DHT22;15382;47.578;8.086;2023-12-29T04:11:38;4.80;99.90
28069;DHT22;15382;47.578;8.086;2023-12-29T04:21:39;4.70;99.90
28069;DHT22;15382;47.578;8.086;2023-12-29T04:31:39;4.70;99.90
28069;DHT22;15382;47.578;8.086;2023-12-29T04:41:40;4.70;99.90
28069;DHT22;15382;47.578;8.086;2023-12-29T04:51:41;4.80;99.90
28069;DHT22;15382;47.578;8.086;2023-12-29T05:01:41;4.90;99.90
28069;DHT22;15382;47.578;8.086;2023-12-29T05:11:42;4.90;99.90
28069;DHT22;15382;47.578;8.086;2023-12-29T05:21:43;4.90;99.90
28069;DHT22;15382;47.578;8.086;2023-12-29T05:31:43;4.90;99.90
28069;DHT22;15382;47.578;8.086;2023-12-29T05:41:44;5.00;99.90
28069;DHT22;15382;47.578;8.086;2023-12-29T05:51:45;5.00;99.90
28069;DHT22;15382;47.578;8.086;2023-12-29T06:01:45;5.10;99.90
28069;DHT22;15382;47.578;8.086;2023-12-29T06:11:46;5.10;99.90
28069;DHT22;15382;47.578;8.086;2023-12-29T06:21:47;5.10;99.90
28069;DHT22;15382;47.578;8.086;2023-12-29T06:31:48;5.10;99.90
28069;DHT22;15382;47.578;8.086;2023-12-29T06:41:48;5.10;99.90
28069;DHT22;15382;47.578;8.086;2023-12-29T06:51:49;5.10;99.90
28069;DHT22;15382;47.578;8.086;2023-12-29T07:01:51;5.10;99.90
28069;DHT22;15382;47.578;8.086;2023-12-29T07:11:52;5.10;99.90
28069;DHT22;15382;47.578;8.086;2023-12-29T07:21:53;5.20;99.90
28069;DHT22;15382;47.578;8.086;2023-12-29T07:31:53;5.20;99.90
28069;DHT22;15382;47.578;8.086;2023-12-29T07:41:54;5.10;99.90
28069;DHT22;15382;47.578;8.086;2023-12-29T07:51:57;5.10;99.90
28069;DHT22;15382;47.578;8.086;2023-12-29T08:01:59;5.20;99.90
28069;DHT22;15382;47.578;8.086;2023-12-29T08:12:00;5.30;99.90
28069;DHT22;15382;47.578;8.086;2023-12-29T08:22:01;5.40;99.90
28069;DHT22;15382;47.578;8.086;2023-12-29T08:32:01;5.40;99.90
28069;DHT22;15382;47.578;8.086;2023-12-29T08:42:02;6.10;99.90
28069;DHT22;15382;47.578;8.086;2023-12-29T08:52:03;6.00;99.90
28069;DHT22;15382;47.578;8.086;2023-12-29T09:02:05;5.70;99.90
28069;DHT22;15382;47.578;8.086;2023-12-29T09:12:05;5.80;99.90
28069;DHT22;15382;47.578;8.086;2023-12-29T09:22:06;6.00;99.90
28069;DHT22;15382;47.578;8.086;2023-12-29T09:32:07;6.20;99.90
28069;DHT22;15382;47.578;8.086;2023-12-29T09:42:07;6.70;99.90
28069;DHT22;15382;47.578;8.086;2023-12-29T09:52:12;7.10;99.90
28069;DHT22;15382;47.578;8.086;2023-12-29T10:02:16;7.50;99.90
28069;DHT22;15382;47.578;8.086;2023-12-29T10:12:17;8.00;99.90
28069;DHT22;15382;47.578;8.086;2023-12-29T10:22:21;7.70;99.90
28069;DHT22;15382;47.578;8.086;2023-12-29T10:32:25;7.40;99.90
28069;DHT22;15382;47.578;8.086;2023-12-29T10:42:29;7.40;99.90
28069;DHT22;15382;47.578;8.086;2023-12-29T10:52:30;7.50;99.90
28069;DHT22;15382;47.578;8.086;2023-12-29T11:02:31;7.50;99.90
28069;DHT22;15382;47.578;8.086;2023-12-29T11:12:34;7.50;99.90
28069;DHT22;15382;47.578;8.086;2023-12-29T11:22:35;7.60;99.90
28069;DHT22;15382;47.578;8.086;2023-12-29T11:42:57;7.70;99.90
28069;DHT22;15382;47.578;8.086;2023-12-29T11:53:00;7.80;99.90
28069;DHT22;15382;47.578;8.086;2023-12-29T12:03:08;7.80;99.90
28069;DHT22;15382;47.578;8.086;2023-12-29T12:13:18;7.70;99.90
28069;DHT22;15382;47.578;8.086;2023-12-29T12:23:34;7.80;99.90
28069;DHT22;15382;47.578;8.086;2023-12-29T12:33:35;8.10;99.90
28069;DHT22;15382;47.578;8.086;2023-12-29T12:43:36;8.10;99.90
28069;DHT22;15382;47.578;8.086;2023-12-29T12:53:42;8.20;99.90
28069;DHT22;15382;47.578;8.086;2023-12-29T13:03:47;8.40;99.90
28069;DHT22;15382;47.578;8.086;2023-12-29T13:13:49;8.50;99.90
28069;DHT22;15382;47.578;8.086;2023-12-29T13:23:50;8.60;99.90
28069;DHT22;15382;47.578;8.086;2023-12-29T13:33:55;8.70;99.90
28069;DHT22;15382;47.578;8.086;2023-12-29T13:43:58;8.70;99.90
28069;DHT22;15382;47.578;8.086;2023-12-29T13:54:02;8.90;99.90
28069;DHT22;15382;47.578;8.086;2023-12-29T14:04:06;9.00;99.90
28069;DHT22;15382;47.578;8.086;2023-12-29T14:14:08;9.10;99.90
28069;DHT22;15382;47.578;8.086;2023-12-29T14:24:12;9.10;99.90
28069;DHT22;15382;47.578;8.086;2023-12-29T14:34:14;9.00;99.90
28069;DHT22;15382;47.578;8.086;2023-12-29T14:44:15;9.10;99.90
28069;DHT22;15382;47.578;8.086;2023-12-29T14:54:15;9.00;99.90
28069;DHT22;15382;47.578;8.086;2023-12-29T15:04:16;8.80;99.90
28069;DHT22;15382;47.578;8.086;2023-12-29T15:14:17;8.70;99.90
28069;DHT22;15382;47.578;8.086;2023-12-29T15:24:17;8.70;99.90
28069;DHT22;15382;47.578;8.086;2023-12-29T15:34:18;8.70;99.90
28069;DHT22;15382;47.578;8.086;2023-12-29T15:44:19;8.40;99.90
28069;DHT22;15382;47.578;8.086;2023-12-29T15:54:20;8.30;99.90
28069;DHT22;15382;47.578;8.086;2023-12-29T16:04:21;8.30;99.90
28069;DHT22;15382;47.578;8.086;2023-12-29T16:14:21;8.40;99.90
28069;DHT22;15382;47.578;8.086;2023-12-29T16:24:22;8.20;99.90
28069;DHT22;15382;47.578;8.086;2023-12-29T16:34:23;8.30;99.90
28069;DHT22;15382;47.578;8.086;2023-12-29T16:44:23;8.30;99.90
28069;DHT22;15382;47.578;8.086;2023-12-29T16:54:24;8.30;99.90
28069;DHT22;15382;47.578;8.086;2023-12-29T17:04:25;8.10;99.90
28069;DHT22;15382;47.578;8.086;2023-12-29T17:14:26;8.10;99.90
28069;DHT22;15382;47.578;8.086;2023-12-29T17:24:26;7.90;99.90
28069;DHT22;15382;47.578;8.086;2023-12-29T17:34:28;8.00;99.90
28069;DHT22;15382;47.578;8.086;2023-12-29T17:44:29;7.90;99.90
28069;DHT22;15382;47.578;8.086;2023-12-29T17:54:30;7.90;99.90
28069;DHT22;15382;47.578;8.086;2023-12-29T18:04:30;8.20;99.90
28069;DHT22;15382;47.578;8.086;2023-12-29T18:14:36;8.60;99.90
28069;DHT22;15382;47.578;8.086;2023-12-29T18:24:37;8.70;99.90
28069;DHT22;15382;47.578;8.086;2023-12-29T18:34:40;8.90;99.90
28069;DHT22;15382;47.578;8.086;2023-12-29T18:44:40;8.70;99.90
28069;DHT22;15382;47.578;8.086;2023-12-29T18:54:41;8.60;99.90
28069;DHT22;15382;47.578;8.086;2023-12-29T19:04:42;8.50;99.90
28069;DHT22;15382;47.578;8.086;2023-12-29T19:14:44;8.60;99.90
28069;DHT22;15382;47.578;8.086;2023-12-29T19:24:52;8.70;99.90
28069;DHT22;15382;47.578;8.086;2023-12-29T19:34:53;8.70;99.90
28069;DHT22;15382;47.578;8.086;2023-12-29T19:44:54;8.70;99.90
28069;DHT22;15382;47.578;8.086;2023-12-29T19:54:55;8.80;99.90
28069;DHT22;15382;47.578;8.086;2023-12-29T20:04:56;8.70;99.90
28069;DHT22;15382;47.578;8.086;2023-12-29T20:14:56;8.70;99.90
28069;DHT22;15382;47.578;8.086;2023-12-29T20:24:57;8.80;99.90
28069;DHT22;15382;47.578;8.086;2023-12-29T20:34:57;8.80;99.90
28069;DHT22;15382;47.578;8.086;2023-12-29T20:44:59;8.80;99.90
28069;DHT22;15382;47.578;8.086;2023-12-29T20:55:00;8.80;99.90
28069;DHT22;15382;47.578;8.086;2023-12-29T21:05:00;8.80;99.90
28069;DHT22;15382;47.578;8.086;2023-12-29T21:15:03;8.80;99.90
28069;DHT22;15382;47.578;8.086;2023-12-29T21:25:04;8.80;99.90
28069;DHT22;15382;47.578;8.086;2023-12-29T21:35:05;8.90;99.90
28069;DHT22;15382;47.578;8.086;2023-12-29T21:45:06;8.90;99.90
28069;DHT22;15382;47.578;8.086;2023-12-29T21:55:10;8.80;99.90
28069;DHT22;15382;47.578;8.086;2023-12-29T22:05:11;8.90;99.90
28069;DHT22;15382;47.578;8.086;2023-12-29T22:15:11;9.10;99.90
28069;DHT22;15382;47.578;8.086;2023-12-29T22:25:12;9.30;99.90
28069;DHT22;15382;47.578;8.086;2023-12-29T22:35:13;9.40;99.90
28069;DHT22;15382;47.578;8.086;2023-12-29T22:45:14;9.40;99.90
28069;DHT22;15382;47.578;8.086;2023-12-29T22:55:14;9.30;99.90
28069;DHT22;15382;47.578;8.086;2023-12-29T23:05:15;9.30;99.90
28069;DHT22;15382;47.578;8.086;2023-12-29T23:15:16;9.20;99.90
28069;DHT22;15382;47.578;8.086;2023-12-29T23:25:17;9.00;99.90
28069;DHT22;15382;47.578;8.086;2023-12-29T23:35:17;8.80;99.90
28069;DHT22;15382;47.578;8.086;2023-12-29T23:45:18;8.60;99.90
28069;DHT22;15382;47.578;8.086;2023-12-29T23:55:19;8.50;99.90
